Time;durP1;ratioP1;P1;durP2;ratioP2;P2;SDS_P1;SDS_P2;PMS_P1;PMS_P2;Temp;Humidity;BMP_temperature;BMP_pressure;BME280_temperature;BME280_humidity;BME280_pressure;Samples;Min_cycle;Max_cycle;Signal;HPM_P1;HPM_P2
2023/12/12 00:01:01;;;;;;;;;;;7.60;99.60;;;;;;6303353;22;19903;-82
2023/12/12 00:03:26;;;;;;;;;;;7.50;99.50;;;;;;6277108;22;19899;-82
2023/12/12 00:05:52;;;;;;;;;;;7.50;99.60;;;;;;6306780;22;19899;-82
2023/12/12 00:08:18;;;;;;;;;;;7.60;99.60;;;;;;6307678;22;20371;-82
2023/12/12 00:10:43;;;;;;;;;;;7.60;99.60;;;;;;6306875;22;19899;-82
2023/12/12 00:13:09;;;;;;;;;;;7.60;99.60;;;;;;6306160;22;19903;-83
2023/12/12 00:15:34;;;;;;;;;;;7.60;99.50;;;;;;6306905;22;19923;-82
2023/12/12 00:18:00;;;;;;;;;;;7.60;99.50;;;;;;6307330;22;19926;-82
2023/12/12 00:20:25;;;;;;;;;;;7.60;99.50;;;;;;6306720;22;19986;-82
2023/12/12 00:22:51;;;;;;;;;;;7.60;99.40;;;;;;6307572;22;19902;-82
2023/12/12 00:25:16;;;;;;;;;;;7.50;99.40;;;;;;6306934;22;19926;-82
2023/12/12 00:27:42;;;;;;;;;;;7.50;99.40;;;;;;6306896;22;19907;-82
2023/12/12 00:30:08;;;;;;;;;;;7.50;99.40;;;;;;6279799;22;20341;-82
2023/12/12 00:32:34;;;;;;;;;;;7.50;99.40;;;;;;6307426;22;19903;-81
2023/12/12 00:34:59;;;;;;;;;;;7.50;99.50;;;;;;6307232;22;19899;-82
2023/12/12 00:37:25;;;;;;;;;;;7.50;99.40;;;;;;6307629;22;19898;-82
2023/12/12 00:39:50;;;;;;;;;;;7.50;99.40;;;;;;6307202;22;20327;-82
2023/12/12 00:42:16;;;;;;;;;;;7.40;99.30;;;;;;6307491;22;20241;-81
2023/12/12 00:44:41;;;;;;;;;;;7.40;99.30;;;;;;6307331;22;19910;-81
2023/12/12 00:47:07;;;;;;;;;;;7.40;99.20;;;;;;6280412;22;19977;-82
2023/12/12 00:49:33;;;;;;;;;;;7.30;99.30;;;;;;6307400;22;19899;-82
2023/12/12 00:51:58;;;;;;;;;;;7.30;99.30;;;;;;6307356;22;20279;-82
2023/12/12 00:54:24;;;;;;;;;;;7.30;99.20;;;;;;6306993;22;19930;-82
2023/12/12 00:56:49;;;;;;;;;;;7.30;99.30;;;;;;6280477;22;19906;-82
2023/12/12 00:59:15;;;;;;;;;;;7.30;99.20;;;;;;6307086;22;19945;-82
2023/12/12 01:01:41;;;;;;;;;;;7.20;99.30;;;;;;6278706;22;20216;-82
2023/12/12 01:04:08;;;;;;;;;;;7.20;99.20;;;;;;6307209;22;19899;-81
2023/12/12 01:06:33;;;;;;;;;;;7.20;99.10;;;;;;6307764;22;19906;-81
2023/12/12 01:08:59;;;;;;;;;;;7.20;99.20;;;;;;6307082;22;20255;-81
2023/12/12 01:11:24;;;;;;;;;;;7.20;99.20;;;;;;6306601;22;20216;-81
2023/12/12 01:13:50;;;;;;;;;;;7.20;99.30;;;;;;6306958;22;19949;-82
2023/12/12 01:16:15;;;;;;;;;;;7.10;99.10;;;;;;6308680;22;19906;-82
2023/12/12 01:18:41;;;;;;;;;;;7.10;99.10;;;;;;6309569;22;19903;-81
2023/12/12 01:21:07;;;;;;;;;;;7.10;99.10;;;;;;6281382;22;19903;-81
2023/12/12 01:23:51;;;;;;;;;;;7.10;99.00;;;;;;6309512;22;20211;-81
2023/12/12 01:26:18;;;;;;;;;;;7.10;99.20;;;;;;6309079;22;20252;-81
2023/12/12 01:28:43;;;;;;;;;;;7.10;99.20;;;;;;6308446;22;19898;-81
2023/12/12 01:31:09;;;;;;;;;;;7.10;99.10;;;;;;6308711;22;19906;-81
2023/12/12 01:33:35;;;;;;;;;;;7.10;99.00;;;;;;6309289;22;19907;-81
2023/12/12 01:36:00;;;;;;;;;;;7.10;99.00;;;;;;6308841;22;19909;-81
2023/12/12 01:38:26;;;;;;;;;;;7.10;99.00;;;;;;6308994;22;19918;-81
2023/12/12 01:40:53;;;;;;;;;;;7.10;98.90;;;;;;6308525;22;19899;-81
2023/12/12 01:43:24;;;;;;;;;;;7.10;98.90;;;;;;6309056;22;19899;-81
2023/12/12 01:45:50;;;;;;;;;;;7.10;99.00;;;;;;6308122;22;19934;-82
2023/12/12 01:48:16;;;;;;;;;;;7.10;99.00;;;;;;6309273;22;19903;-82
2023/12/12 01:50:42;;;;;;;;;;;7.10;98.80;;;;;;6308384;22;19945;-82
2023/12/12 01:53:07;;;;;;;;;;;7.10;98.80;;;;;;6308591;22;19942;-82
2023/12/12 01:55:34;;;;;;;;;;;7.10;98.70;;;;;;6309272;22;19899;-82
2023/12/12 01:58:00;;;;;;;;;;;7.00;98.70;;;;;;6309042;22;20351;-82
2023/12/12 02:00:25;;;;;;;;;;;7.00;98.80;;;;;;6307833;22;19902;-82
2023/12/12 02:02:51;;;;;;;;;;;7.00;98.90;;;;;;6308905;22;19953;-82
2023/12/12 02:05:16;;;;;;;;;;;7.00;98.70;;;;;;6308533;22;19899;-82
2023/12/12 02:07:43;;;;;;;;;;;7.00;98.70;;;;;;6309226;22;19906;-81
2023/12/12 02:10:09;;;;;;;;;;;7.00;98.80;;;;;;6280704;22;19899;-81
2023/12/12 02:12:35;;;;;;;;;;;7.00;98.60;;;;;;6308811;22;19913;-82
2023/12/12 02:15:00;;;;;;;;;;;7.00;98.60;;;;;;6308623;22;19981;-82
2023/12/12 02:17:26;;;;;;;;;;;7.00;98.60;;;;;;6308350;22;20335;-82
2023/12/12 02:19:52;;;;;;;;;;;6.90;98.70;;;;;;6307850;22;19903;-82
2023/12/12 02:22:17;;;;;;;;;;;6.90;98.70;;;;;;6308651;22;19934;-82
2023/12/12 02:24:43;;;;;;;;;;;6.90;98.60;;;;;;6309157;22;19906;-82
2023/12/12 02:27:08;;;;;;;;;;;6.90;98.60;;;;;;6308763;22;19906;-82
2023/12/12 02:29:34;;;;;;;;;;;6.90;98.60;;;;;;6308706;22;19898;-82
2023/12/12 02:32:00;;;;;;;;;;;6.90;98.50;;;;;;6309027;22;19934;-82
2023/12/12 02:34:25;;;;;;;;;;;6.90;98.40;;;;;;6308325;22;19899;-82
2023/12/12 02:36:51;;;;;;;;;;;6.80;98.50;;;;;;6309096;22;19974;-82
2023/12/12 02:39:16;;;;;;;;;;;6.80;98.60;;;;;;6308184;22;19926;-82
2023/12/12 02:41:42;;;;;;;;;;;6.80;98.60;;;;;;6307835;22;19898;-83
2023/12/12 02:44:07;;;;;;;;;;;6.80;98.50;;;;;;6280321;22;19910;-82
2023/12/12 02:46:33;;;;;;;;;;;6.80;98.60;;;;;;6308074;22;19911;-82
2023/12/12 02:48:58;;;;;;;;;;;6.80;98.60;;;;;;6308395;22;19899;-81
2023/12/12 02:51:24;;;;;;;;;;;6.80;98.60;;;;;;6280812;22;19899;-82
2023/12/12 02:53:49;;;;;;;;;;;6.80;98.40;;;;;;6308587;22;20177;-82
2023/12/12 02:56:15;;;;;;;;;;;6.70;98.50;;;;;;6307984;22;19903;-82
2023/12/12 02:58:40;;;;;;;;;;;6.80;98.60;;;;;;6308418;22;19944;-81
2023/12/12 03:01:09;;;;;;;;;;;6.70;98.60;;;;;;6307802;22;19976;-81
2023/12/12 03:03:34;;;;;;;;;;;6.70;98.30;;;;;;6308291;22;20528;-81
2023/12/12 03:06:00;;;;;;;;;;;6.70;98.50;;;;;;6308034;22;19898;-81
2023/12/12 03:08:25;;;;;;;;;;;6.60;98.60;;;;;;6307998;22;19921;-81
2023/12/12 03:10:51;;;;;;;;;;;6.60;98.60;;;;;;6308214;22;19898;-81
2023/12/12 03:13:17;;;;;;;;;;;6.70;98.40;;;;;;6308098;22;19903;-83
2023/12/12 03:15:42;;;;;;;;;;;6.60;98.50;;;;;;6308052;22;19926;-82
2023/12/12 03:18:08;;;;;;;;;;;6.70;98.60;;;;;;6307612;22;20223;-82
2023/12/12 03:20:33;;;;;;;;;;;6.70;98.60;;;;;;6307307;22;20298;-81
2023/12/12 03:22:59;;;;;;;;;;;6.70;98.50;;;;;;6308206;22;19973;-81
2023/12/12 03:25:24;;;;;;;;;;;6.70;98.50;;;;;;6307451;22;20796;-81
2023/12/12 03:27:50;;;;;;;;;;;6.70;98.40;;;;;;6308143;22;19898;-81
2023/12/12 03:30:15;;;;;;;;;;;6.80;98.30;;;;;;6307386;22;19906;-81
2023/12/12 03:32:41;;;;;;;;;;;6.70;98.20;;;;;;6307868;22;19906;-81
2023/12/12 03:35:07;;;;;;;;;;;6.70;98.30;;;;;;6307890;22;19899;-81
2023/12/12 03:37:33;;;;;;;;;;;6.70;98.30;;;;;;6308494;22;19917;-81
2023/12/12 03:39:58;;;;;;;;;;;6.70;98.20;;;;;;6306549;22;20214;-81
2023/12/12 03:42:24;;;;;;;;;;;6.60;98.10;;;;;;6280089;22;19899;-81
2023/12/12 03:44:49;;;;;;;;;;;6.60;98.20;;;;;;6265712;22;19915;-80
2023/12/12 03:47:15;;;;;;;;;;;6.50;98.20;;;;;;6244644;23;19900;-81
2023/12/12 03:49:41;;;;;;;;;;;6.50;98.20;;;;;;6245933;23;20336;-80
2023/12/12 03:52:06;;;;;;;;;;;6.40;98.30;;;;;;6246204;23;19958;-80
2023/12/12 03:54:32;;;;;;;;;;;6.40;98.40;;;;;;6245268;22;19930;-81
2023/12/12 03:56:58;;;;;;;;;;;6.30;98.40;;;;;;6246228;22;19907;-81
2023/12/12 03:59:24;;;;;;;;;;;6.40;98.50;;;;;;6255378;23;19907;-82
2023/12/12 04:01:50;;;;;;;;;;;6.40;98.50;;;;;;6259364;22;20406;-81
2023/12/12 04:04:17;;;;;;;;;;;6.40;98.40;;;;;;6246077;22;19957;-81
2023/12/12 04:06:46;;;;;;;;;;;6.40;98.40;;;;;;6246103;22;19932;-81
2023/12/12 04:09:11;;;;;;;;;;;6.40;98.40;;;;;;6243678;23;19899;-81
2023/12/12 04:11:37;;;;;;;;;;;6.30;98.40;;;;;;6245239;23;20379;-81
2023/12/12 04:14:02;;;;;;;;;;;6.40;98.40;;;;;;6245099;23;19903;-82
2023/12/12 04:16:28;;;;;;;;;;;6.40;98.40;;;;;;6245725;23;19937;-83
2023/12/12 04:18:53;;;;;;;;;;;6.40;98.40;;;;;;6245747;23;19900;-82
2023/12/12 04:21:19;;;;;;;;;;;6.40;98.30;;;;;;6243522;23;19907;-82
2023/12/12 04:23:45;;;;;;;;;;;6.40;98.30;;;;;;6245287;22;19943;-82
2023/12/12 04:26:10;;;;;;;;;;;6.40;98.40;;;;;;6245528;22;19907;-82
2023/12/12 04:28:36;;;;;;;;;;;6.40;98.30;;;;;;6245831;22;20311;-82
2023/12/12 04:31:02;;;;;;;;;;;6.40;98.30;;;;;;6245202;22;19900;-82
2023/12/12 04:33:27;;;;;;;;;;;6.40;98.30;;;;;;6245704;23;19904;-82
2023/12/12 04:35:53;;;;;;;;;;;6.40;98.20;;;;;;6245552;22;19899;-82
2023/12/12 04:38:19;;;;;;;;;;;6.40;98.20;;;;;;6243901;23;20372;-82
2023/12/12 04:40:44;;;;;;;;;;;6.40;98.20;;;;;;6245942;22;19957;-82
2023/12/12 04:43:10;;;;;;;;;;;6.40;98.10;;;;;;6244521;23;19946;-83
2023/12/12 04:45:35;;;;;;;;;;;6.40;98.10;;;;;;6282524;22;19918;-82
2023/12/12 04:48:01;;;;;;;;;;;6.40;98.30;;;;;;6280390;22;20373;-83
2023/12/12 04:50:26;;;;;;;;;;;6.40;98.10;;;;;;6308616;22;20329;-82
2023/12/12 04:52:52;;;;;;;;;;;6.40;98.10;;;;;;6309218;22;20221;-82
2023/12/12 04:55:17;;;;;;;;;;;6.40;98.20;;;;;;6309145;22;19942;-83
2023/12/12 04:57:44;;;;;;;;;;;6.30;98.10;;;;;;6281991;22;19945;-81
2023/12/12 05:00:13;;;;;;;;;;;6.40;98.10;;;;;;6308964;22;19899;-82
2023/12/12 05:02:39;;;;;;;;;;;6.40;98.10;;;;;;6309694;22;19899;-82
2023/12/12 05:05:05;;;;;;;;;;;6.40;98.00;;;;;;6308496;22;20323;-81
2023/12/12 05:07:31;;;;;;;;;;;6.30;98.00;;;;;;6309141;22;19981;-82
2023/12/12 05:09:56;;;;;;;;;;;6.40;98.00;;;;;;6309350;22;20259;-82
2023/12/12 05:12:22;;;;;;;;;;;6.40;97.90;;;;;;6309190;22;20229;-81
2023/12/12 05:14:47;;;;;;;;;;;6.40;97.90;;;;;;6309144;22;20356;-81
2023/12/12 05:17:13;;;;;;;;;;;6.30;97.90;;;;;;6309492;22;19933;-81
2023/12/12 05:19:38;;;;;;;;;;;6.30;98.10;;;;;;6309640;22;19899;-82
2023/12/12 05:22:04;;;;;;;;;;;6.40;98.00;;;;;;6309367;22;19906;-82
2023/12/12 05:24:29;;;;;;;;;;;6.30;98.00;;;;;;6308249;22;19899;-82
2023/12/12 05:26:55;;;;;;;;;;;6.40;97.90;;;;;;6309184;22;20310;-82
2023/12/12 05:29:20;;;;;;;;;;;6.40;97.80;;;;;;6309154;22;19905;-81
2023/12/12 05:31:46;;;;;;;;;;;6.30;97.80;;;;;;6281411;22;19969;-81
2023/12/12 05:34:11;;;;;;;;;;;6.30;97.80;;;;;;6308839;22;19910;-81
2023/12/12 05:36:37;;;;;;;;;;;6.30;97.80;;;;;;6308820;22;19930;-82
2023/12/12 05:39:03;;;;;;;;;;;6.20;97.90;;;;;;6308353;22;19909;-81
2023/12/12 05:41:29;;;;;;;;;;;6.20;98.00;;;;;;6308706;22;19908;-82
2023/12/12 05:43:54;;;;;;;;;;;6.30;98.00;;;;;;6308957;22;20213;-81
2023/12/12 05:46:20;;;;;;;;;;;6.30;98.10;;;;;;6308886;22;20276;-81
2023/12/12 05:48:45;;;;;;;;;;;6.30;98.00;;;;;;6309127;22;19899;-81
2023/12/12 05:51:11;;;;;;;;;;;6.30;97.90;;;;;;6308254;22;19899;-82
2023/12/12 05:53:36;;;;;;;;;;;6.30;97.80;;;;;;6309162;22;19910;-82
2023/12/12 05:56:02;;;;;;;;;;;6.30;97.80;;;;;;6308695;22;19989;-82
2023/12/12 05:58:28;;;;;;;;;;;6.40;97.90;;;;;;6309053;22;19906;-82
2023/12/12 06:00:54;;;;;;;;;;;6.40;97.80;;;;;;6308231;22;19899;-81
2023/12/12 06:03:19;;;;;;;;;;;6.40;97.70;;;;;;6309208;22;19934;-81
2023/12/12 06:05:45;;;;;;;;;;;6.40;97.70;;;;;;6307796;22;19899;-82
2023/12/12 06:08:11;;;;;;;;;;;6.40;97.70;;;;;;6308902;22;20321;-82
2023/12/12 06:10:37;;;;;;;;;;;6.50;97.70;;;;;;6308732;22;19899;-82
2023/12/12 06:13:04;;;;;;;;;;;6.50;97.70;;;;;;6308754;22;19938;-81
2023/12/12 06:15:29;;;;;;;;;;;6.50;97.60;;;;;;6308786;22;20214;-80
2023/12/12 06:17:55;;;;;;;;;;;6.60;97.60;;;;;;6308028;22;19906;-81
2023/12/12 06:20:20;;;;;;;;;;;6.60;97.50;;;;;;6307273;22;19919;-81
2023/12/12 06:22:46;;;;;;;;;;;6.60;97.50;;;;;;6307892;22;20244;-82
2023/12/12 06:25:11;;;;;;;;;;;6.50;97.50;;;;;;6308064;22;19899;-82
2023/12/12 06:27:37;;;;;;;;;;;6.50;97.50;;;;;;6308566;22;19920;-79
2023/12/12 06:30:03;;;;;;;;;;;6.50;97.60;;;;;;6280584;22;20285;-79
2023/12/12 06:32:28;;;;;;;;;;;6.40;97.60;;;;;;6307056;22;20280;-79
2023/12/12 06:34:54;;;;;;;;;;;6.40;97.40;;;;;;6280162;22;19941;-79
2023/12/12 06:37:19;;;;;;;;;;;6.40;97.50;;;;;;6307846;22;19906;-79
2023/12/12 06:39:45;;;;;;;;;;;6.40;97.60;;;;;;6307009;22;20359;-79
2023/12/12 06:42:11;;;;;;;;;;;6.40;97.60;;;;;;6307552;22;19909;-81
2023/12/12 06:44:37;;;;;;;;;;;6.30;97.60;;;;;;6306733;22;19972;-81
2023/12/12 06:47:02;;;;;;;;;;;6.30;97.60;;;;;;6306714;22;19899;-81
2023/12/12 06:49:28;;;;;;;;;;;6.30;97.50;;;;;;6308103;22;19899;-81
2023/12/12 06:51:53;;;;;;;;;;;6.30;97.50;;;;;;6308138;22;19930;-81
2023/12/12 06:54:19;;;;;;;;;;;6.20;97.30;;;;;;6308370;22;19898;-81
2023/12/12 06:56:44;;;;;;;;;;;6.20;97.50;;;;;;6307255;22;19898;-81
2023/12/12 06:59:10;;;;;;;;;;;6.20;97.60;;;;;;6307916;22;19905;-83
2023/12/12 07:01:36;;;;;;;;;;;6.20;97.50;;;;;;6307334;22;19982;-82
2023/12/12 07:04:01;;;;;;;;;;;6.20;97.60;;;;;;6304612;22;20223;-81
2023/12/12 07:06:27;;;;;;;;;;;6.10;97.50;;;;;;6303060;22;19909;-80
2023/12/12 07:08:52;;;;;;;;;;;6.10;97.60;;;;;;6305803;22;19930;-80
2023/12/12 07:11:18;;;;;;;;;;;6.10;97.70;;;;;;6305673;22;20330;-83
2023/12/12 07:13:44;;;;;;;;;;;6.20;97.70;;;;;;6304473;22;19903;-84
2023/12/12 07:16:12;;;;;;;;;;;6.20;97.60;;;;;;6306698;22;19957;-83
2023/12/12 07:18:38;;;;;;;;;;;6.20;97.60;;;;;;6306824;22;20347;-83
2023/12/12 07:21:04;;;;;;;;;;;6.20;97.70;;;;;;6305254;22;19899;-82
2023/12/12 07:23:30;;;;;;;;;;;6.30;97.50;;;;;;6279076;22;19906;-82
2023/12/12 07:25:59;;;;;;;;;;;6.20;97.40;;;;;;6307992;22;19902;-86
2023/12/12 07:28:25;;;;;;;;;;;6.30;97.40;;;;;;6307838;22;19903;-78
2023/12/12 07:30:51;;;;;;;;;;;6.20;97.40;;;;;;6307456;22;19899;-78
2023/12/12 07:33:16;;;;;;;;;;;6.30;97.40;;;;;;6279316;22;20232;-78
2023/12/12 07:35:42;;;;;;;;;;;6.30;97.30;;;;;;6307893;22;19910;-79
2023/12/12 07:38:07;;;;;;;;;;;6.30;97.20;;;;;;6308022;22;19909;-78
2023/12/12 07:40:33;;;;;;;;;;;6.30;97.30;;;;;;6305881;22;19978;-78
2023/12/12 07:42:58;;;;;;;;;;;6.30;97.20;;;;;;6305203;22;19933;-79
2023/12/12 07:45:24;;;;;;;;;;;6.30;97.20;;;;;;6307461;22;19910;-78
2023/12/12 07:47:50;;;;;;;;;;;6.40;97.20;;;;;;6307072;22;20290;-84
2023/12/12 07:50:17;;;;;;;;;;;6.50;97.20;;;;;;6307382;22;19899;-83
2023/12/12 07:52:43;;;;;;;;;;;6.50;97.10;;;;;;6307714;22;20276;-83
2023/12/12 07:55:08;;;;;;;;;;;6.50;97.10;;;;;;6306775;22;19910;-81
2023/12/12 07:57:34;;;;;;;;;;;6.50;97.10;;;;;;6306358;22;19933;-82
2023/12/12 07:59:59;;;;;;;;;;;6.60;97.10;;;;;;6306636;22;19899;-82
2023/12/12 08:02:25;;;;;;;;;;;6.60;97.20;;;;;;6307370;22;19899;-80
2023/12/12 08:04:51;;;;;;;;;;;6.70;98.60;;;;;;6304389;22;19899;-83
2023/12/12 08:07:16;;;;;;;;;;;6.80;98.70;;;;;;6306789;22;19941;-82
2023/12/12 08:09:42;;;;;;;;;;;6.90;97.80;;;;;;6307227;22;19903;-83
2023/12/12 08:12:08;;;;;;;;;;;6.90;97.40;;;;;;6307216;22;19909;-83
2023/12/12 08:14:33;;;;;;;;;;;6.90;97.30;;;;;;6306830;22;20324;-83
2023/12/12 08:16:59;;;;;;;;;;;7.00;97.00;;;;;;6307224;22;20224;-82
2023/12/12 08:19:24;;;;;;;;;;;7.00;96.90;;;;;;6307231;22;20255;-82
2023/12/12 08:21:50;;;;;;;;;;;7.00;96.90;;;;;;6307714;22;19899;-82
2023/12/12 08:24:15;;;;;;;;;;;7.00;96.80;;;;;;6307720;22;19898;-82
2023/12/12 08:26:44;;;;;;;;;;;7.00;96.70;;;;;;6309556;22;19899;-83
2023/12/12 08:29:10;;;;;;;;;;;7.10;96.60;;;;;;6309941;22;19905;-82
2023/12/12 08:31:37;;;;;;;;;;;7.10;96.70;;;;;;6309219;22;20332;-81
2023/12/12 08:34:03;;;;;;;;;;;7.10;96.70;;;;;;6309874;22;20328;-81
2023/12/12 08:36:29;;;;;;;;;;;7.10;96.80;;;;;;6309814;22;19906;-82
2023/12/12 08:38:55;;;;;;;;;;;7.10;96.70;;;;;;6309801;22;19899;-82
2023/12/12 08:41:21;;;;;;;;;;;7.10;96.70;;;;;;6310007;22;20007;-82
2023/12/12 08:43:47;;;;;;;;;;;7.10;96.70;;;;;;6310067;22;20390;-81
2023/12/12 08:46:12;;;;;;;;;;;7.10;96.80;;;;;;6308948;22;19910;-81
2023/12/12 08:48:38;;;;;;;;;;;7.10;96.80;;;;;;6308119;22;19976;-81
2023/12/12 08:51:04;;;;;;;;;;;7.10;96.80;;;;;;6307830;22;19899;-81
2023/12/12 08:53:29;;;;;;;;;;;7.10;96.70;;;;;;6306755;22;19909;-81
2023/12/12 08:55:55;;;;;;;;;;;7.10;96.80;;;;;;6308934;22;19899;-81
2023/12/12 08:58:23;;;;;;;;;;;7.10;96.80;;;;;;6309306;22;19906;-81
2023/12/12 09:00:51;;;;;;;;;;;7.20;97.00;;;;;;6309051;22;19933;-81
2023/12/12 09:03:16;;;;;;;;;;;7.20;96.80;;;;;;6310047;22;19905;-81
2023/12/12 09:05:42;;;;;;;;;;;7.30;96.80;;;;;;6309797;22;19978;-81
2023/12/12 09:08:08;;;;;;;;;;;7.30;96.60;;;;;;6306393;22;20287;-81
2023/12/12 09:10:33;;;;;;;;;;;7.30;96.60;;;;;;6304669;22;20333;-81
2023/12/12 09:12:59;;;;;;;;;;;7.40;96.60;;;;;;6309735;22;20301;-81
2023/12/12 09:15:24;;;;;;;;;;;7.40;96.50;;;;;;6308756;22;19903;-81
2023/12/12 09:17:50;;;;;;;;;;;7.40;96.60;;;;;;6308677;22;19899;-81
2023/12/12 09:20:15;;;;;;;;;;;7.50;96.70;;;;;;6310132;22;19906;-81
2023/12/12 09:22:41;;;;;;;;;;;7.60;96.70;;;;;;6309381;22;19930;-81
2023/12/12 09:25:06;;;;;;;;;;;7.70;96.70;;;;;;6309083;22;19964;-81
2023/12/12 09:27:32;;;;;;;;;;;7.70;96.50;;;;;;6308314;22;19899;-81
2023/12/12 09:29:57;;;;;;;;;;;7.80;96.60;;;;;;6281073;22;19902;-81
2023/12/12 09:32:23;;;;;;;;;;;7.90;96.60;;;;;;6308529;22;19910;-81
2023/12/12 09:34:48;;;;;;;;;;;7.90;96.60;;;;;;6308765;22;19899;-81
2023/12/12 09:37:14;;;;;;;;;;;8.00;96.40;;;;;;6308804;22;19903;-81
2023/12/12 09:39:40;;;;;;;;;;;8.00;96.30;;;;;;6309132;22;19899;-81
2023/12/12 09:42:07;;;;;;;;;;;8.00;96.50;;;;;;6308969;22;19899;-81
2023/12/12 09:44:34;;;;;;;;;;;8.00;96.50;;;;;;6308279;22;19906;-81
2023/12/12 09:47:01;;;;;;;;;;;8.10;96.60;;;;;;6309089;22;19905;-81
2023/12/12 09:49:27;;;;;;;;;;;8.10;96.60;;;;;;6309247;22;19973;-81
2023/12/12 09:51:54;;;;;;;;;;;8.20;96.60;;;;;;6308547;22;19941;-81
2023/12/12 09:54:20;;;;;;;;;;;8.20;96.60;;;;;;6308736;22;19903;-81
2023/12/12 09:56:46;;;;;;;;;;;8.20;96.60;;;;;;6309099;22;19898;-81
2023/12/12 09:59:12;;;;;;;;;;;8.30;96.50;;;;;;6308213;22;19973;-81
2023/12/12 10:01:38;;;;;;;;;;;8.20;96.60;;;;;;6308103;22;20246;-82
2023/12/12 10:04:05;;;;;;;;;;;8.20;96.60;;;;;;6308939;22;20371;-81
2023/12/12 10:06:34;;;;;;;;;;;8.30;96.70;;;;;;6308572;22;19903;-81
2023/12/12 10:09:00;;;;;;;;;;;8.30;96.80;;;;;;6308709;22;20271;-81
2023/12/12 10:11:25;;;;;;;;;;;8.40;96.90;;;;;;6308570;22;19976;-81
2023/12/12 10:13:56;;;;;;;;;;;8.40;96.90;;;;;;6308524;22;19906;-81
2023/12/12 10:16:22;;;;;;;;;;;8.50;96.90;;;;;;6309176;22;20221;-80
2023/12/12 10:18:48;;;;;;;;;;;8.50;96.80;;;;;;6308631;22;19973;-80
2023/12/12 10:21:14;;;;;;;;;;;8.60;96.80;;;;;;6307832;22;19898;-80
2023/12/12 10:23:45;;;;;;;;;;;8.60;96.70;;;;;;6308713;22;19949;-80
2023/12/12 10:26:11;;;;;;;;;;;8.70;96.70;;;;;;6308749;22;19899;-80
2023/12/12 10:28:37;;;;;;;;;;;8.70;96.70;;;;;;6306570;22;19981;-80
2023/12/12 10:31:02;;;;;;;;;;;8.80;96.80;;;;;;6307718;22;20284;-80
2023/12/12 10:33:28;;;;;;;;;;;8.80;96.70;;;;;;6308834;22;19907;-80
2023/12/12 10:35:53;;;;;;;;;;;8.90;96.70;;;;;;6309021;22;19898;-80
2023/12/12 10:38:25;;;;;;;;;;;9.00;96.60;;;;;;6306812;22;19906;-80
2023/12/12 10:40:50;;;;;;;;;;;9.00;96.40;;;;;;6307261;22;19899;-80
2023/12/12 10:43:17;;;;;;;;;;;9.00;96.30;;;;;;6308591;22;19934;-82
2023/12/12 10:45:43;;;;;;;;;;;9.10;96.40;;;;;;6308303;22;19981;-80
2023/12/12 10:48:11;;;;;;;;;;;9.20;96.50;;;;;;6307832;22;19909;-80
2023/12/12 10:50:38;;;;;;;;;;;9.30;96.50;;;;;;6308099;22;19898;-81
2023/12/12 10:53:04;;;;;;;;;;;9.30;96.40;;;;;;6308615;22;19925;-80
2023/12/12 10:55:30;;;;;;;;;;;9.40;96.40;;;;;;6308975;22;20364;-79
2023/12/12 10:57:56;;;;;;;;;;;9.40;96.30;;;;;;6308634;22;19931;-81
2023/12/12 11:00:22;;;;;;;;;;;9.50;96.40;;;;;;6308899;22;20313;-81
2023/12/12 11:02:48;;;;;;;;;;;9.60;96.40;;;;;;6308783;22;20293;-80
2023/12/12 11:05:14;;;;;;;;;;;9.60;96.40;;;;;;6281394;22;19973;-81
2023/12/12 11:07:41;;;;;;;;;;;9.60;96.40;;;;;;6308647;22;19907;-81
2023/12/12 11:10:11;;;;;;;;;;;9.70;96.30;;;;;;6308582;22;19905;-81
2023/12/12 11:12:44;;;;;;;;;;;9.80;96.30;;;;;;6308146;22;19910;-80
2023/12/12 11:15:12;;;;;;;;;;;9.80;96.30;;;;;;6308822;22;19902;-80
2023/12/12 11:17:38;;;;;;;;;;;9.90;96.30;;;;;;6308721;22;20214;-81
2023/12/12 11:20:13;;;;;;;;;;;10.00;96.20;;;;;;6308144;22;19899;-81
2023/12/12 11:22:40;;;;;;;;;;;9.90;96.20;;;;;;6308533;22;20309;-80
2023/12/12 11:25:08;;;;;;;;;;;9.90;96.30;;;;;;6308597;22;20221;-80
2023/12/12 11:27:35;;;;;;;;;;;9.90;96.40;;;;;;6280991;22;19906;-80
2023/12/12 11:30:01;;;;;;;;;;;9.90;96.50;;;;;;6308507;22;20210;-80
2023/12/12 11:32:27;;;;;;;;;;;10.00;96.70;;;;;;6308580;22;19903;-80
2023/12/12 11:34:52;;;;;;;;;;;10.20;96.70;;;;;;6308147;22;20296;-80
2023/12/12 11:37:18;;;;;;;;;;;10.50;96.60;;;;;;6306910;22;19899;-81
2023/12/12 11:39:49;;;;;;;;;;;10.80;96.40;;;;;;6306716;22;19899;-81
2023/12/12 11:42:20;;;;;;;;;;;11.30;96.50;;;;;;6306521;22;20305;-81
2023/12/12 11:44:50;;;;;;;;;;;12.10;95.60;;;;;;6307857;22;19911;-81
2023/12/12 11:47:18;;;;;;;;;;;12.70;93.90;;;;;;6308756;22;19915;-81
2023/12/12 11:49:45;;;;;;;;;;;13.20;93.60;;;;;;6338618;22;19914;-81
2023/12/12 11:52:10;;;;;;;;;;;13.80;92.50;;;;;;6339233;22;19909;-80
2023/12/12 11:54:38;;;;;;;;;;;14.10;91.80;;;;;;6339070;22;19899;-81
2023/12/12 11:57:04;;;;;;;;;;;14.50;91.70;;;;;;6339001;22;19898;-81
2023/12/12 11:59:32;;;;;;;;;;;15.00;89.30;;;;;;6339143;22;19902;-81
2023/12/12 12:01:57;;;;;;;;;;;15.50;89.50;;;;;;6311127;22;19906;-82
2023/12/12 12:04:23;;;;;;;;;;;15.70;87.10;;;;;;6337663;22;20228;-81
2023/12/12 12:06:50;;;;;;;;;;;15.60;86.30;;;;;;6338902;22;19899;-81
2023/12/12 12:09:16;;;;;;;;;;;15.30;86.30;;;;;;6338776;22;19898;-81
2023/12/12 12:11:46;;;;;;;;;;;14.90;86.80;;;;;;6310969;22;19930;-80
2023/12/12 12:14:17;;;;;;;;;;;14.60;88.20;;;;;;6338565;22;19909;-80
2023/12/12 12:16:42;;;;;;;;;;;14.50;89.20;;;;;;6338648;22;19899;-80
2023/12/12 12:19:28;;;;;;;;;;;14.40;89.80;;;;;;6338724;22;19967;-80
2023/12/12 12:21:53;;;;;;;;;;;14.50;90.00;;;;;;6339215;22;19947;-80
2023/12/12 12:24:19;;;;;;;;;;;14.80;89.90;;;;;;6338946;22;19898;-80
2023/12/12 12:26:44;;;;;;;;;;;15.20;89.70;;;;;;6338423;22;20233;-80
2023/12/12 12:29:10;;;;;;;;;;;15.50;88.80;;;;;;6338512;22;19902;-80
2023/12/12 12:31:38;;;;;;;;;;;15.70;88.10;;;;;;6338823;22;19898;-80
2023/12/12 12:34:19;;;;;;;;;;;15.90;87.50;;;;;;6338387;22;20236;-80
2023/12/12 12:36:49;;;;;;;;;;;16.00;87.30;;;;;;6338959;22;19898;-80
2023/12/12 12:39:18;;;;;;;;;;;16.10;85.20;;;;;;6338809;22;19899;-80
2023/12/12 12:41:47;;;;;;;;;;;16.20;85.90;;;;;;6311145;22;19902;-79
2023/12/12 12:44:13;;;;;;;;;;;16.20;86.10;;;;;;6338603;22;19925;-80
2023/12/12 12:46:49;;;;;;;;;;;16.10;86.30;;;;;;6338898;22;20228;-81
2023/12/12 12:49:15;;;;;;;;;;;16.00;85.10;;;;;;6338868;22;19964;-81
2023/12/12 12:51:42;;;;;;;;;;;15.90;86.50;;;;;;6338770;22;19906;-81
2023/12/12 12:54:08;;;;;;;;;;;16.00;85.30;;;;;;6338454;22;19903;-82
2023/12/12 12:56:33;;;;;;;;;;;16.00;86.10;;;;;;6338833;22;19909;-81
2023/12/12 12:58:59;;;;;;;;;;;16.10;86.90;;;;;;6338861;22;19898;-81
2023/12/12 13:01:24;;;;;;;;;;;16.10;85.80;;;;;;6338567;22;19898;-81
2023/12/12 13:03:50;;;;;;;;;;;16.10;86.10;;;;;;6338609;22;19910;-81
2023/12/12 13:06:17;;;;;;;;;;;16.00;84.30;;;;;;6338449;22;19903;-81
2023/12/12 13:08:43;;;;;;;;;;;15.90;85.40;;;;;;6338436;22;19899;-81
2023/12/12 13:11:09;;;;;;;;;;;15.90;85.30;;;;;;6339744;22;19899;-81
2023/12/12 13:13:35;;;;;;;;;;;15.80;85.30;;;;;;6340393;22;19955;-81
2023/12/12 13:16:00;;;;;;;;;;;15.70;85.80;;;;;;6340152;22;19903;-81
2023/12/12 13:18:26;;;;;;;;;;;15.60;85.40;;;;;;6339888;22;19899;-81
2023/12/12 13:20:51;;;;;;;;;;;15.50;85.80;;;;;;6340024;22;19945;-81
2023/12/12 13:23:17;;;;;;;;;;;15.40;86.30;;;;;;6340057;22;19899;-81
2023/12/12 13:25:42;;;;;;;;;;;15.30;86.50;;;;;;6339962;22;19898;-81
2023/12/12 13:28:08;;;;;;;;;;;15.20;86.60;;;;;;6339969;22;19902;-81
2023/12/12 13:30:34;;;;;;;;;;;15.00;86.80;;;;;;6339938;22;19898;-81
2023/12/12 13:32:59;;;;;;;;;;;14.90;87.00;;;;;;6339591;22;19903;-82
2023/12/12 13:35:25;;;;;;;;;;;14.70;87.20;;;;;;6340005;22;19902;-81
2023/12/12 13:37:50;;;;;;;;;;;14.60;87.70;;;;;;6340171;22;19899;-81
2023/12/12 13:40:16;;;;;;;;;;;14.40;88.90;;;;;;6340283;22;19977;-81
2023/12/12 13:42:42;;;;;;;;;;;14.30;89.00;;;;;;6339897;22;19898;-81
2023/12/12 13:45:08;;;;;;;;;;;14.20;89.50;;;;;;6339637;22;19906;-82
2023/12/12 13:47:34;;;;;;;;;;;14.00;89.80;;;;;;6339507;22;19917;-80
2023/12/12 13:50:00;;;;;;;;;;;13.90;90.10;;;;;;6339843;22;20283;-80
2023/12/12 13:52:28;;;;;;;;;;;13.80;90.30;;;;;;6340441;22;19898;-80
2023/12/12 13:54:53;;;;;;;;;;;13.70;90.40;;;;;;6339839;22;19947;-80
2023/12/12 13:57:19;;;;;;;;;;;13.60;90.50;;;;;;6339967;22;19898;-80
2023/12/12 13:59:44;;;;;;;;;;;13.50;90.70;;;;;;6339879;22;19898;-80
2023/12/12 14:02:10;;;;;;;;;;;13.40;90.70;;;;;;6339938;22;19902;-80
2023/12/12 14:04:35;;;;;;;;;;;13.40;90.90;;;;;;6339877;22;19903;-80
2023/12/12 14:07:01;;;;;;;;;;;13.30;91.10;;;;;;6339889;22;19899;-80
2023/12/12 14:09:27;;;;;;;;;;;13.30;91.50;;;;;;6312618;22;19977;-80
2023/12/12 14:11:53;;;;;;;;;;;13.20;91.30;;;;;;6339352;22;20272;-80
2023/12/12 14:14:18;;;;;;;;;;;13.20;91.40;;;;;;6311938;22;19910;-80
2023/12/12 14:16:44;;;;;;;;;;;13.20;91.50;;;;;;6339667;22;19980;-80
2023/12/12 14:19:10;;;;;;;;;;;13.10;91.70;;;;;;6339664;22;19898;-80
2023/12/12 14:21:36;;;;;;;;;;;13.10;91.50;;;;;;6339439;22;19977;-80